createdAt,value
2023-03-11T00:03:10.201Z,4.50
2023-03-11T00:07:14.418Z,5.20
2023-03-11T00:11:17.133Z,4.07
2023-03-11T00:15:20.732Z,4.87
2023-03-11T00:19:24.796Z,4.90
2023-03-11T00:23:28.906Z,4.70
2023-03-11T00:27:31.543Z,4.60
2023-03-11T00:31:34.271Z,4.30
2023-03-11T00:35:38.439Z,4.40
2023-03-11T00:39:41.146Z,4.50
2023-03-11T00:43:43.909Z,5.40
2023-03-11T00:47:47.207Z,4.47
2023-03-11T00:51:51.285Z,5.50
2023-03-11T00:55:54.024Z,4.40
2023-03-11T00:59:57.088Z,3.97
2023-03-11T01:04:00.751Z,3.63
2023-03-11T01:08:05.783Z,4.57
2023-03-11T01:12:08.553Z,4.13
2023-03-11T01:16:11.276Z,3.50
2023-03-11T01:20:14.784Z,3.77
2023-03-11T01:24:18.964Z,3.87
2023-03-11T01:28:21.654Z,3.47
2023-03-11T01:32:24.501Z,3.40
2023-03-11T01:36:27.787Z,3.43
2023-03-11T01:40:34.214Z,3.47
2023-03-11T01:44:40.992Z,3.53
2023-03-11T01:48:47.645Z,3.30
2023-03-11T01:52:50.628Z,3.10
2023-03-11T01:56:56.597Z,3.30
2023-03-11T02:01:00.938Z,3.30
2023-03-11T02:05:04.898Z,2.97
2023-03-11T02:09:08.546Z,3.20
2023-03-11T02:13:13.294Z,3.27
2023-03-11T02:17:16.990Z,3.17
2023-03-11T02:21:25.041Z,3.07
2023-03-11T02:25:35.419Z,3.20
2023-03-11T02:29:42.360Z,3.30
2023-03-11T02:33:48.092Z,2.97
2023-03-11T02:37:53.502Z,3.63
2023-03-11T02:41:57.775Z,3.70
2023-03-11T02:46:03.440Z,4.23
2023-03-11T02:50:10.439Z,3.43
2023-03-11T02:54:13.652Z,3.40
2023-03-11T02:58:17.590Z,3.33
2023-03-11T03:02:21.808Z,3.83
2023-03-11T03:06:25.215Z,3.07
2023-03-11T03:10:28.726Z,2.77
2023-03-11T03:14:33.261Z,3.13
2023-03-11T03:18:37.412Z,3.10
2023-03-11T03:22:40.808Z,2.87
2023-03-11T03:26:45.272Z,2.80
2023-03-11T03:30:48.511Z,2.93
2023-03-11T03:34:58.239Z,3.33
2023-03-11T03:39:10.068Z,3.50
2023-03-11T03:43:13.730Z,3.10
2023-03-11T03:47:21.126Z,2.50
2023-03-11T03:51:25.402Z,3.00
2023-03-11T03:55:36.931Z,2.93
2023-03-11T03:59:39.738Z,2.97
2023-03-11T04:03:42.667Z,3.00
2023-03-11T04:07:49.989Z,2.77
2023-03-11T04:11:53.510Z,2.67
2023-03-11T04:15:56.639Z,2.77
2023-03-11T04:19:59.555Z,2.67
2023-03-11T04:24:03.978Z,3.20
2023-03-11T04:28:10.653Z,3.13
2023-03-11T04:32:13.369Z,3.47
2023-03-11T04:36:17.580Z,2.57
2023-03-11T04:40:22.073Z,3.20
2023-03-11T04:44:25.016Z,2.53
2023-03-11T04:48:27.834Z,2.53
2023-03-11T04:52:30.942Z,2.00
2023-03-11T04:56:35.256Z,2.40
2023-03-11T05:00:39.311Z,2.17
2023-03-11T05:04:45.636Z,2.97
2023-03-11T05:08:50.332Z,2.93
2023-03-11T05:12:54.916Z,2.67
2023-03-11T05:17:00.770Z,2.50
2023-03-11T05:21:05.480Z,3.27
2023-03-11T05:25:10.685Z,2.90
2023-03-11T05:29:15.701Z,3.57
2023-03-11T05:33:18.466Z,3.73
2023-03-11T05:37:22.262Z,3.40
2023-03-11T05:41:26.733Z,3.50
2023-03-11T05:45:30.999Z,3.33
2023-03-11T05:49:36.153Z,3.53
2023-03-11T05:53:39.542Z,2.83
2023-03-11T05:57:42.315Z,2.80
2023-03-11T06:01:46.552Z,2.67
2023-03-11T06:05:51.026Z,3.07
2023-03-11T06:09:54.595Z,2.90
2023-03-11T06:13:59.066Z,2.50
2023-03-11T06:18:06.227Z,2.80
2023-03-11T06:22:11.021Z,3.03
2023-03-11T06:26:15.707Z,2.30
2023-03-11T06:30:20.870Z,3.57
2023-03-11T06:34:42.035Z,3.20
2023-03-11T06:38:46.469Z,3.17
2023-03-11T06:42:50.318Z,2.60
2023-03-11T06:46:55.117Z,2.60
2023-03-11T06:51:01.238Z,3.50
2023-03-11T06:55:06.958Z,2.80
2023-03-11T06:59:09.972Z,3.13
2023-03-11T07:03:12.797Z,3.07
2023-03-11T07:07:17.133Z,3.13
2023-03-11T07:11:22.235Z,3.17
2023-03-11T07:15:27.248Z,2.83
2023-03-11T07:19:30.208Z,3.50
2023-03-11T07:23:35.239Z,3.40
2023-03-11T07:27:39.132Z,3.20
2023-03-11T07:31:42.439Z,3.50
2023-03-11T07:35:45.872Z,3.00
2023-03-11T07:39:50.139Z,3.83
2023-03-11T07:43:55.455Z,4.43
2023-03-11T07:47:58.415Z,4.43
2023-03-11T07:52:01.126Z,3.47
2023-03-11T07:56:06.364Z,3.23
2023-03-11T08:00:12.596Z,3.37
2023-03-11T08:04:16.988Z,3.33
2023-03-11T08:08:19.922Z,3.73
2023-03-11T08:12:24.229Z,3.73
2023-03-11T08:16:28.162Z,3.60
2023-03-11T08:20:31.033Z,3.63
2023-03-11T08:24:35.676Z,4.17
2023-03-11T08:28:40.043Z,3.27
2023-03-11T08:32:43.152Z,3.60
2023-03-11T08:36:46.097Z,3.53
2023-03-11T08:40:48.794Z,3.33
2023-03-11T08:44:52.826Z,3.77
2023-03-11T08:48:57.575Z,3.27
2023-03-11T08:53:03.213Z,3.53
2023-03-11T08:57:05.986Z,3.53
2023-03-11T09:01:11.880Z,7.43
2023-03-11T09:05:14.944Z,5.60
2023-03-11T09:09:20.279Z,4.23
2023-03-11T09:13:23.314Z,4.23
2023-03-11T09:17:27.713Z,4.23
2023-03-11T09:21:30.725Z,5.10
2023-03-11T09:25:34.007Z,3.30
2023-03-11T09:29:40.130Z,2.80
2023-03-11T09:33:46.289Z,4.87
2023-03-11T09:37:49.456Z,4.80
2023-03-11T09:41:58.885Z,3.10
2023-03-11T09:46:08.323Z,3.20
2023-03-11T09:50:27.651Z,3.40
2023-03-11T09:54:39.349Z,3.10
2023-03-11T09:58:47.089Z,2.63
2023-03-11T10:02:50.814Z,3.50
2023-03-11T10:07:00.577Z,3.17
2023-03-11T10:11:13.632Z,2.90
2023-03-11T10:15:24.288Z,2.67
2023-03-11T10:19:40.385Z,2.93
2023-03-11T10:24:00.432Z,2.70
2023-03-11T10:28:08.780Z,3.40
2023-03-11T10:32:20.329Z,2.90
2023-03-11T10:36:31.848Z,2.70
2023-03-11T10:40:40.802Z,2.57
2023-03-11T10:44:48.438Z,2.50
2023-03-11T10:48:52.054Z,2.07
2023-03-11T10:53:10.009Z,2.43
2023-03-11T10:57:26.915Z,2.00
2023-03-11T11:01:33.099Z,2.47
2023-03-11T11:05:37.886Z,2.60
2023-03-11T11:09:41.112Z,2.80
2023-03-11T11:13:57.830Z,5.20
2023-03-11T11:18:04.569Z,3.10
2023-03-11T11:22:17.461Z,1.90
2023-03-11T11:26:22.989Z,1.97
2023-03-11T11:30:28.435Z,2.07
2023-03-11T11:34:34.279Z,2.10
2023-03-11T11:38:37.309Z,2.43
2023-03-11T11:42:45.150Z,1.67
2023-03-11T11:46:56.321Z,2.97
2023-03-11T11:51:02.393Z,1.90
2023-03-11T11:55:16.982Z,3.20
2023-03-11T11:59:23.013Z,3.63
2023-03-11T12:04:04.722Z,1.70
2023-03-11T12:08:18.322Z,2.43
2023-03-11T12:12:28.758Z,2.40
2023-03-11T12:16:41.423Z,2.40
2023-03-11T12:20:48.673Z,2.30
2023-03-11T12:25:06.979Z,2.13
2023-03-11T12:29:19.920Z,2.30
2023-03-11T12:33:31.489Z,2.37
2023-03-11T12:37:38.033Z,2.43
2023-03-11T12:41:42.758Z,1.70
2023-03-11T12:45:50.155Z,1.90
2023-03-11T12:49:55.218Z,2.30
2023-03-11T12:53:59.551Z,2.20
2023-03-11T12:58:28.204Z,1.83
2023-03-11T13:02:59.029Z,1.70
2023-03-11T13:07:26.710Z,1.77
2023-03-11T13:11:44.586Z,2.03
2023-03-11T13:15:47.372Z,1.60
2023-03-11T13:19:53.706Z,2.23
2023-03-11T13:24:41.564Z,2.63
2023-03-11T13:29:12.247Z,2.33
2023-03-11T13:33:26.494Z,3.13
2023-03-11T13:37:41.589Z,3.20
2023-03-11T13:41:45.830Z,2.40
2023-03-11T13:45:54.289Z,2.10
2023-03-11T13:50:03.843Z,1.90
2023-03-11T13:54:36.722Z,2.37
2023-03-11T13:58:39.515Z,4.30
2023-03-11T14:02:48.615Z,3.20
2023-03-11T14:06:53.101Z,3.10
2023-03-11T14:10:57.913Z,2.07
2023-03-11T14:15:05.156Z,1.60
2023-03-11T14:19:16.679Z,1.70
2023-03-11T14:23:24.318Z,1.70
2023-03-11T14:27:29.312Z,1.87
2023-03-11T14:31:33.915Z,1.50
2023-03-11T14:35:42.616Z,1.63
2023-03-11T14:39:47.661Z,1.80
2023-03-11T14:43:54.994Z,2.10
2023-03-11T14:48:03.430Z,1.70
2023-03-11T14:52:17.500Z,2.10
2023-03-11T14:56:23.778Z,1.63
2023-03-11T15:00:31.988Z,1.20
2023-03-11T15:04:44.210Z,2.00
2023-03-11T15:08:53.596Z,2.07
2023-03-11T15:13:10.149Z,1.60
2023-03-11T15:17:37.129Z,1.67
2023-03-11T15:21:47.419Z,1.90
2023-03-11T15:25:53.145Z,1.93
2023-03-11T15:29:57.038Z,2.00
2023-03-11T15:34:11.039Z,1.67
2023-03-11T15:38:21.543Z,2.00
2023-03-11T15:42:27.707Z,1.70
2023-03-11T15:46:31.691Z,1.87
2023-03-11T15:50:50.608Z,1.43
2023-03-11T15:54:57.276Z,1.53
2023-03-11T15:59:03.527Z,1.30
2023-03-11T16:03:06.926Z,1.93
2023-03-11T16:07:10.930Z,1.40
2023-03-11T16:11:14.018Z,1.40
2023-03-11T16:15:25.034Z,1.90
2023-03-11T16:19:27.771Z,3.00
2023-03-11T16:23:50.153Z,3.10
2023-03-11T16:27:56.438Z,4.17
2023-03-11T16:32:00.613Z,2.10
2023-03-11T16:36:16.629Z,1.60
2023-03-11T16:40:20.938Z,1.50
2023-03-11T16:44:24.795Z,1.50
2023-03-11T16:48:30.080Z,1.70
2023-03-11T16:52:34.268Z,1.40
2023-03-11T16:56:43.098Z,1.53
2023-03-11T17:00:47.883Z,1.70
2023-03-11T17:04:52.556Z,1.57
2023-03-11T17:08:55.402Z,1.60
2023-03-11T17:12:58.404Z,2.30
2023-03-11T17:17:01.449Z,4.13
2023-03-11T17:21:09.394Z,5.03
2023-03-11T17:25:12.599Z,3.43
2023-03-11T17:29:15.545Z,3.60
2023-03-11T17:33:18.578Z,3.17
2023-03-11T17:37:30.282Z,2.40
2023-03-11T17:41:33.547Z,4.67
2023-03-11T17:45:39.018Z,19.23
2023-03-11T17:49:41.956Z,23.53
2023-03-11T17:53:48.348Z,19.13
2023-03-11T17:57:53.298Z,16.00
2023-03-11T18:01:57.158Z,18.40
2023-03-11T18:06:01.471Z,12.97
2023-03-11T18:10:06.445Z,9.80
2023-03-11T18:14:10.050Z,6.50
2023-03-11T18:18:13.300Z,5.57
2023-03-11T18:22:16.950Z,5.60
2023-03-11T18:26:21.795Z,5.30
2023-03-11T18:30:25.495Z,4.63
2023-03-11T18:34:28.389Z,7.17
2023-03-11T18:38:31.353Z,18.23
2023-03-11T18:42:35.734Z,15.47
2023-03-11T18:46:41.448Z,15.07
2023-03-11T18:50:44.682Z,13.40
2023-03-11T18:54:48.590Z,9.90
2023-03-11T18:58:55.296Z,7.87
2023-03-11T19:02:58.550Z,6.50
2023-03-11T19:07:01.217Z,7.93
2023-03-11T19:11:07.327Z,7.63
2023-03-11T19:15:12.682Z,7.67
2023-03-11T19:19:15.517Z,7.90
2023-03-11T19:23:18.456Z,7.37
2023-03-11T19:27:21.532Z,6.47
2023-03-11T19:31:25.849Z,7.60
2023-03-11T19:35:29.620Z,9.10
2023-03-11T19:39:32.580Z,8.03
2023-03-11T19:43:36.624Z,8.40
2023-03-11T19:47:41.507Z,8.00
2023-03-11T19:51:50.227Z,7.07
2023-03-11T19:55:55.530Z,6.33
2023-03-11T19:59:58.366Z,7.17
2023-03-11T20:04:03.171Z,7.97
2023-03-11T20:08:07.486Z,7.47
2023-03-11T20:12:10.627Z,7.10
2023-03-11T20:16:18.075Z,5.60
2023-03-11T20:20:22.989Z,4.33
2023-03-11T20:24:26.282Z,5.30
2023-03-11T20:28:29.194Z,6.30
2023-03-11T20:32:32.214Z,6.43
2023-03-11T20:36:36.580Z,8.13
2023-03-11T20:40:40.258Z,8.40
2023-03-11T20:44:43.323Z,9.00
2023-03-11T20:48:46.785Z,9.47
2023-03-11T20:52:51.517Z,9.40
2023-03-11T20:56:54.406Z,12.37
2023-03-11T21:00:57.516Z,13.40
2023-03-11T21:05:01.129Z,11.53
2023-03-11T21:09:07.244Z,13.30
2023-03-11T21:13:10.526Z,12.40
2023-03-11T21:17:13.480Z,15.00
2023-03-11T21:21:17.931Z,14.80
2023-03-11T21:25:22.397Z,16.53
2023-03-11T21:29:25.499Z,22.07
2023-03-11T21:33:28.837Z,22.73
2023-03-11T21:37:32.303Z,19.80
2023-03-11T21:41:36.787Z,19.50
2023-03-11T21:45:40.276Z,21.80
2023-03-11T21:49:43.199Z,30.70
2023-03-11T21:53:46.235Z,30.40
2023-03-11T21:57:50.738Z,32.87
2023-03-11T22:01:53.925Z,32.27
2023-03-11T22:05:58.404Z,31.33
2023-03-11T22:10:01.416Z,27.63
2023-03-11T22:14:05.862Z,27.77
2023-03-11T22:18:08.878Z,27.60
2023-03-11T22:22:11.774Z,29.00
2023-03-11T22:26:15.879Z,29.47
2023-03-11T22:30:20.070Z,28.97
2023-03-11T22:34:22.963Z,25.03
2023-03-11T22:38:26.844Z,24.77
2023-03-11T22:42:30.684Z,25.50
2023-03-11T22:46:34.845Z,23.20
2023-03-11T22:50:41.403Z,25.13
2023-03-11T22:54:44.430Z,27.13
2023-03-11T22:58:47.880Z,34.53
2023-03-11T23:02:56.939Z,38.93
2023-03-11T23:06:59.759Z,34.87
2023-03-11T23:11:04.516Z,30.33
2023-03-11T23:15:10.928Z,26.40
2023-03-11T23:19:15.654Z,20.87
2023-03-11T23:23:18.488Z,21.90
2023-03-11T23:27:22.213Z,22.70
2023-03-11T23:31:26.757Z,19.77
2023-03-11T23:35:31.177Z,16.77
2023-03-11T23:39:34.956Z,13.53
2023-03-11T23:43:37.817Z,12.43
2023-03-11T23:47:41.107Z,12.73
2023-03-11T23:51:45.424Z,10.20
2023-03-11T23:55:48.898Z,11.17
2023-03-11T23:59:51.987Z,10.50
